sensor_id;sensor_type;location;lat;lon;timestamp;P1;durP1;ratioP1;P2;durP2;ratioP2
13228;SDS011;6680;53.220;10.402;2022-09-28T00:00:24;3.67;;;3.27;;
13228;SDS011;6680;53.220;10.402;2022-09-28T00:02:51;4.87;;;3.10;;
13228;SDS011;6680;53.220;10.402;2022-09-28T00:05:22;4.53;;;3.53;;
13228;SDS011;6680;53.220;10.402;2022-09-28T00:07:50;3.53;;;2.80;;
13228;SDS011;6680;53.220;10.402;2022-09-28T00:10:18;5.00;;;2.83;;
13228;SDS011;6680;53.220;10.402;2022-09-28T00:12:46;5.20;;;2.83;;
13228;SDS011;6680;53.220;10.402;2022-09-28T00:15:13;3.77;;;2.83;;
13228;SDS011;6680;53.220;10.402;2022-09-28T00:17:40;4.03;;;3.60;;
13228;SDS011;6680;53.220;10.402;2022-09-28T00:20:08;3.53;;;3.23;;
13228;SDS011;6680;53.220;10.402;2022-09-28T00:22:37;4.30;;;3.50;;
13228;SDS011;6680;53.220;10.402;2022-09-28T00:25:04;10.00;;;3.30;;
13228;SDS011;6680;53.220;10.402;2022-09-28T00:27:32;5.90;;;3.47;;
13228;SDS011;6680;53.220;10.402;2022-09-28T00:29:58;5.80;;;3.17;;
13228;SDS011;6680;53.220;10.402;2022-09-28T00:32:25;3.10;;;2.80;;
13228;SDS011;6680;53.220;10.402;2022-09-28T00:34:52;3.60;;;2.93;;
13228;SDS011;6680;53.220;10.402;2022-09-28T00:37:19;4.50;;;3.03;;
13228;SDS011;6680;53.220;10.402;2022-09-28T00:39:47;4.23;;;3.27;;
13228;SDS011;6680;53.220;10.402;2022-09-28T00:42:15;3.23;;;2.77;;
13228;SDS011;6680;53.220;10.402;2022-09-28T00:44:45;4.70;;;3.37;;
13228;SDS011;6680;53.220;10.402;2022-09-28T00:47:17;4.23;;;3.83;;
13228;SDS011;6680;53.220;10.402;2022-09-28T00:49:50;4.40;;;3.17;;
13228;SDS011;6680;53.220;10.402;2022-09-28T00:52:22;3.87;;;3.00;;
13228;SDS011;6680;53.220;10.402;2022-09-28T00:54:54;5.07;;;3.40;;
13228;SDS011;6680;53.220;10.402;2022-09-28T00:57:25;5.73;;;4.13;;
13228;SDS011;6680;53.220;10.402;2022-09-28T00:59:52;3.70;;;3.40;;
13228;SDS011;6680;53.220;10.402;2022-09-28T01:02:20;4.90;;;4.27;;
13228;SDS011;6680;53.220;10.402;2022-09-28T01:04:47;4.53;;;3.57;;
13228;SDS011;6680;53.220;10.402;2022-09-28T01:07:15;5.70;;;4.23;;
13228;SDS011;6680;53.220;10.402;2022-09-28T01:09:42;6.50;;;4.67;;
13228;SDS011;6680;53.220;10.402;2022-09-28T01:12:12;7.97;;;4.77;;
13228;SDS011;6680;53.220;10.402;2022-09-28T01:14:38;6.07;;;4.73;;
13228;SDS011;6680;53.220;10.402;2022-09-28T01:17:06;7.13;;;5.10;;
13228;SDS011;6680;53.220;10.402;2022-09-28T01:19:46;7.87;;;5.50;;
13228;SDS011;6680;53.220;10.402;2022-09-28T01:22:34;7.57;;;5.67;;
13228;SDS011;6680;53.220;10.402;2022-09-28T01:25:23;7.43;;;6.03;;
13228;SDS011;6680;53.220;10.402;2022-09-28T01:28:04;7.17;;;4.83;;
13228;SDS011;6680;53.220;10.402;2022-09-28T01:30:35;9.17;;;5.90;;
13228;SDS011;6680;53.220;10.402;2022-09-28T01:33:07;7.23;;;5.37;;
13228;SDS011;6680;53.220;10.402;2022-09-28T01:35:38;7.87;;;5.90;;
13228;SDS011;6680;53.220;10.402;2022-09-28T01:38:08;10.27;;;6.17;;
13228;SDS011;6680;53.220;10.402;2022-09-28T01:40:41;8.60;;;5.73;;
13228;SDS011;6680;53.220;10.402;2022-09-28T01:43:10;8.07;;;5.30;;
13228;SDS011;6680;53.220;10.402;2022-09-28T01:45:41;11.03;;;7.07;;
13228;SDS011;6680;53.220;10.402;2022-09-28T01:48:10;8.67;;;5.60;;
13228;SDS011;6680;53.220;10.402;2022-09-28T01:50:41;9.13;;;5.87;;
13228;SDS011;6680;53.220;10.402;2022-09-28T01:53:12;10.80;;;5.60;;
13228;SDS011;6680;53.220;10.402;2022-09-28T01:55:44;8.57;;;5.80;;
13228;SDS011;6680;53.220;10.402;2022-09-28T01:58:18;12.00;;;6.37;;
13228;SDS011;6680;53.220;10.402;2022-09-28T02:00:51;11.13;;;6.10;;
13228;SDS011;6680;53.220;10.402;2022-09-28T02:03:22;11.17;;;6.33;;
13228;SDS011;6680;53.220;10.402;2022-09-28T02:05:55;8.67;;;6.43;;
13228;SDS011;6680;53.220;10.402;2022-09-28T02:08:25;8.23;;;5.70;;
13228;SDS011;6680;53.220;10.402;2022-09-28T02:10:58;9.83;;;5.97;;
13228;SDS011;6680;53.220;10.402;2022-09-28T02:13:32;14.30;;;7.87;;
13228;SDS011;6680;53.220;10.402;2022-09-28T02:16:02;8.80;;;5.97;;
13228;SDS011;6680;53.220;10.402;2022-09-28T02:18:31;8.73;;;6.07;;
13228;SDS011;6680;53.220;10.402;2022-09-28T02:20:59;9.67;;;6.03;;
13228;SDS011;6680;53.220;10.402;2022-09-28T02:23:31;10.60;;;6.30;;
13228;SDS011;6680;53.220;10.402;2022-09-28T02:26:02;8.63;;;5.73;;
13228;SDS011;6680;53.220;10.402;2022-09-28T02:28:33;9.93;;;6.20;;
13228;SDS011;6680;53.220;10.402;2022-09-28T02:31:00;10.00;;;6.50;;
13228;SDS011;6680;53.220;10.402;2022-09-28T02:33:28;10.53;;;5.87;;
13228;SDS011;6680;53.220;10.402;2022-09-28T02:35:59;10.87;;;6.87;;
13228;SDS011;6680;53.220;10.402;2022-09-28T02:38:27;11.73;;;6.30;;
13228;SDS011;6680;53.220;10.402;2022-09-28T02:40:56;9.17;;;6.33;;
13228;SDS011;6680;53.220;10.402;2022-09-28T02:43:31;8.03;;;6.10;;
13228;SDS011;6680;53.220;10.402;2022-09-28T02:46:10;9.87;;;6.30;;
13228;SDS011;6680;53.220;10.402;2022-09-28T02:48:48;9.00;;;5.87;;
13228;SDS011;6680;53.220;10.402;2022-09-28T02:51:26;10.97;;;6.60;;
13228;SDS011;6680;53.220;10.402;2022-09-28T02:56:55;8.17;;;5.80;;
13228;SDS011;6680;53.220;10.402;2022-09-28T02:59:38;9.30;;;5.77;;
13228;SDS011;6680;53.220;10.402;2022-09-28T03:02:13;8.80;;;5.93;;
13228;SDS011;6680;53.220;10.402;2022-09-28T03:04:51;8.07;;;6.13;;
13228;SDS011;6680;53.220;10.402;2022-09-28T03:07:29;8.23;;;6.07;;
13228;SDS011;6680;53.220;10.402;2022-09-28T03:10:01;8.60;;;6.00;;
13228;SDS011;6680;53.220;10.402;2022-09-28T03:12:33;8.40;;;6.07;;
13228;SDS011;6680;53.220;10.402;2022-09-28T03:15:07;9.60;;;5.63;;
13228;SDS011;6680;53.220;10.402;2022-09-28T03:17:35;8.40;;;5.90;;
13228;SDS011;6680;53.220;10.402;2022-09-28T03:20:03;8.83;;;5.97;;
13228;SDS011;6680;53.220;10.402;2022-09-28T03:22:30;8.63;;;6.00;;
13228;SDS011;6680;53.220;10.402;2022-09-28T03:24:56;10.37;;;6.60;;
13228;SDS011;6680;53.220;10.402;2022-09-28T03:27:23;9.37;;;6.30;;
13228;SDS011;6680;53.220;10.402;2022-09-28T03:29:50;7.83;;;5.60;;
13228;SDS011;6680;53.220;10.402;2022-09-28T03:32:18;9.57;;;6.23;;
13228;SDS011;6680;53.220;10.402;2022-09-28T03:34:44;7.83;;;5.57;;
13228;SDS011;6680;53.220;10.402;2022-09-28T03:37:11;8.20;;;5.87;;
13228;SDS011;6680;53.220;10.402;2022-09-28T03:39:38;8.53;;;5.43;;
13228;SDS011;6680;53.220;10.402;2022-09-28T03:42:04;8.83;;;6.60;;
13228;SDS011;6680;53.220;10.402;2022-09-28T03:44:31;7.23;;;5.10;;
13228;SDS011;6680;53.220;10.402;2022-09-28T03:46:58;10.87;;;6.17;;
13228;SDS011;6680;53.220;10.402;2022-09-28T03:49:26;8.60;;;5.77;;
13228;SDS011;6680;53.220;10.402;2022-09-28T03:51:53;8.07;;;5.83;;
13228;SDS011;6680;53.220;10.402;2022-09-28T03:54:19;12.43;;;7.13;;
13228;SDS011;6680;53.220;10.402;2022-09-28T03:56:46;9.27;;;6.47;;
13228;SDS011;6680;53.220;10.402;2022-09-28T03:59:14;8.57;;;5.43;;
13228;SDS011;6680;53.220;10.402;2022-09-28T04:01:41;10.43;;;6.77;;
13228;SDS011;6680;53.220;10.402;2022-09-28T04:04:09;7.90;;;5.83;;
13228;SDS011;6680;53.220;10.402;2022-09-28T04:06:38;11.47;;;6.70;;
13228;SDS011;6680;53.220;10.402;2022-09-28T04:09:04;10.90;;;6.20;;
13228;SDS011;6680;53.220;10.402;2022-09-28T04:11:31;13.17;;;6.07;;
13228;SDS011;6680;53.220;10.402;2022-09-28T04:13:58;9.77;;;6.57;;
13228;SDS011;6680;53.220;10.402;2022-09-28T04:16:25;11.67;;;7.27;;
13228;SDS011;6680;53.220;10.402;2022-09-28T04:18:51;12.03;;;7.70;;
13228;SDS011;6680;53.220;10.402;2022-09-28T04:21:19;12.07;;;7.03;;
13228;SDS011;6680;53.220;10.402;2022-09-28T04:23:47;15.43;;;8.53;;
13228;SDS011;6680;53.220;10.402;2022-09-28T04:26:15;11.30;;;7.27;;
13228;SDS011;6680;53.220;10.402;2022-09-28T04:28:43;11.33;;;7.23;;
13228;SDS011;6680;53.220;10.402;2022-09-28T04:31:27;14.83;;;8.17;;
13228;SDS011;6680;53.220;10.402;2022-09-28T04:33:54;14.93;;;7.90;;
13228;SDS011;6680;53.220;10.402;2022-09-28T04:36:21;11.50;;;7.80;;
13228;SDS011;6680;53.220;10.402;2022-09-28T04:38:50;12.53;;;7.90;;
13228;SDS011;6680;53.220;10.402;2022-09-28T04:41:17;12.33;;;7.53;;
13228;SDS011;6680;53.220;10.402;2022-09-28T04:43:45;12.00;;;8.00;;
13228;SDS011;6680;53.220;10.402;2022-09-28T04:46:11;14.50;;;8.13;;
13228;SDS011;6680;53.220;10.402;2022-09-28T04:48:38;13.03;;;7.90;;
13228;SDS011;6680;53.220;10.402;2022-09-28T04:51:05;15.30;;;7.77;;
13228;SDS011;6680;53.220;10.402;2022-09-28T04:53:32;15.00;;;8.73;;
13228;SDS011;6680;53.220;10.402;2022-09-28T04:56:02;22.97;;;8.90;;
13228;SDS011;6680;53.220;10.402;2022-09-28T04:58:30;17.23;;;9.73;;
13228;SDS011;6680;53.220;10.402;2022-09-28T05:00:59;15.83;;;9.37;;
13228;SDS011;6680;53.220;10.402;2022-09-28T05:03:27;18.20;;;9.07;;
13228;SDS011;6680;53.220;10.402;2022-09-28T05:05:54;19.27;;;10.43;;
13228;SDS011;6680;53.220;10.402;2022-09-28T05:08:21;14.53;;;9.83;;
13228;SDS011;6680;53.220;10.402;2022-09-28T05:10:48;17.13;;;9.83;;
13228;SDS011;6680;53.220;10.402;2022-09-28T05:13:23;15.50;;;9.33;;
13228;SDS011;6680;53.220;10.402;2022-09-28T05:15:51;14.63;;;9.37;;
13228;SDS011;6680;53.220;10.402;2022-09-28T05:18:19;19.20;;;10.40;;
13228;SDS011;6680;53.220;10.402;2022-09-28T05:20:45;16.43;;;9.87;;
13228;SDS011;6680;53.220;10.402;2022-09-28T05:23:13;16.43;;;9.83;;
13228;SDS011;6680;53.220;10.402;2022-09-28T05:25:40;16.83;;;9.27;;
13228;SDS011;6680;53.220;10.402;2022-09-28T05:28:07;14.00;;;9.17;;
13228;SDS011;6680;53.220;10.402;2022-09-28T05:30:35;16.43;;;10.23;;
13228;SDS011;6680;53.220;10.402;2022-09-28T05:33:02;14.73;;;9.47;;
13228;SDS011;6680;53.220;10.402;2022-09-28T05:35:29;16.07;;;9.53;;
13228;SDS011;6680;53.220;10.402;2022-09-28T05:37:56;16.83;;;9.87;;
13228;SDS011;6680;53.220;10.402;2022-09-28T05:40:28;18.47;;;9.83;;
13228;SDS011;6680;53.220;10.402;2022-09-28T05:42:57;17.93;;;10.13;;
13228;SDS011;6680;53.220;10.402;2022-09-28T05:45:24;17.27;;;10.67;;
13228;SDS011;6680;53.220;10.402;2022-09-28T05:47:53;18.20;;;10.40;;
13228;SDS011;6680;53.220;10.402;2022-09-28T05:50:20;16.73;;;9.67;;
13228;SDS011;6680;53.220;10.402;2022-09-28T05:52:46;15.47;;;9.37;;
13228;SDS011;6680;53.220;10.402;2022-09-28T05:55:21;17.73;;;9.33;;
13228;SDS011;6680;53.220;10.402;2022-09-28T05:57:48;12.50;;;8.47;;
13228;SDS011;6680;53.220;10.402;2022-09-28T06:00:15;16.70;;;9.57;;
13228;SDS011;6680;53.220;10.402;2022-09-28T06:02:42;17.13;;;8.93;;
13228;SDS011;6680;53.220;10.402;2022-09-28T06:05:10;12.60;;;8.10;;
13228;SDS011;6680;53.220;10.402;2022-09-28T06:07:37;14.23;;;8.93;;
13228;SDS011;6680;53.220;10.402;2022-09-28T06:10:04;13.30;;;8.20;;
13228;SDS011;6680;53.220;10.402;2022-09-28T06:12:32;16.97;;;8.80;;
13228;SDS011;6680;53.220;10.402;2022-09-28T06:14:59;13.83;;;9.10;;
13228;SDS011;6680;53.220;10.402;2022-09-28T06:17:25;16.10;;;8.97;;
13228;SDS011;6680;53.220;10.402;2022-09-28T06:19:52;13.20;;;8.43;;
13228;SDS011;6680;53.220;10.402;2022-09-28T06:22:20;14.10;;;8.90;;
13228;SDS011;6680;53.220;10.402;2022-09-28T06:24:47;15.33;;;8.77;;
13228;SDS011;6680;53.220;10.402;2022-09-28T06:27:13;12.93;;;8.57;;
13228;SDS011;6680;53.220;10.402;2022-09-28T06:29:40;16.17;;;8.97;;
13228;SDS011;6680;53.220;10.402;2022-09-28T06:32:07;15.23;;;9.70;;
13228;SDS011;6680;53.220;10.402;2022-09-28T06:34:36;19.90;;;9.70;;
13228;SDS011;6680;53.220;10.402;2022-09-28T06:37:02;16.33;;;10.90;;
13228;SDS011;6680;53.220;10.402;2022-09-28T06:39:31;13.53;;;8.53;;
13228;SDS011;6680;53.220;10.402;2022-09-28T06:41:57;13.13;;;8.30;;
13228;SDS011;6680;53.220;10.402;2022-09-28T06:44:28;18.37;;;16.17;;
13228;SDS011;6680;53.220;10.402;2022-09-28T06:46:56;16.37;;;10.13;;
13228;SDS011;6680;53.220;10.402;2022-09-28T06:49:23;12.70;;;7.93;;
13228;SDS011;6680;53.220;10.402;2022-09-28T06:51:51;17.13;;;8.50;;
13228;SDS011;6680;53.220;10.402;2022-09-28T06:54:19;16.43;;;9.40;;
13228;SDS011;6680;53.220;10.402;2022-09-28T06:56:50;10.60;;;7.47;;
13228;SDS011;6680;53.220;10.402;2022-09-28T06:59:17;16.83;;;9.37;;
13228;SDS011;6680;53.220;10.402;2022-09-28T07:01:44;14.97;;;8.43;;
13228;SDS011;6680;53.220;10.402;2022-09-28T07:04:10;14.90;;;8.50;;
13228;SDS011;6680;53.220;10.402;2022-09-28T07:06:37;13.77;;;9.20;;
13228;SDS011;6680;53.220;10.402;2022-09-28T07:09:04;14.57;;;9.17;;
13228;SDS011;6680;53.220;10.402;2022-09-28T07:11:35;17.17;;;8.40;;
13228;SDS011;6680;53.220;10.402;2022-09-28T07:14:04;14.30;;;8.93;;
13228;SDS011;6680;53.220;10.402;2022-09-28T07:16:33;13.27;;;8.20;;
13228;SDS011;6680;53.220;10.402;2022-09-28T07:19:00;13.93;;;8.43;;
13228;SDS011;6680;53.220;10.402;2022-09-28T07:21:27;13.43;;;7.97;;
13228;SDS011;6680;53.220;10.402;2022-09-28T07:23:54;15.80;;;9.33;;
13228;SDS011;6680;53.220;10.402;2022-09-28T07:26:20;15.57;;;8.37;;
13228;SDS011;6680;53.220;10.402;2022-09-28T07:28:47;13.40;;;7.97;;
13228;SDS011;6680;53.220;10.402;2022-09-28T07:31:15;13.80;;;8.53;;
13228;SDS011;6680;53.220;10.402;2022-09-28T07:33:41;11.30;;;6.70;;
13228;SDS011;6680;53.220;10.402;2022-09-28T07:36:09;12.67;;;7.37;;
13228;SDS011;6680;53.220;10.402;2022-09-28T07:38:36;12.13;;;6.90;;
13228;SDS011;6680;53.220;10.402;2022-09-28T07:41:03;11.17;;;7.57;;
13228;SDS011;6680;53.220;10.402;2022-09-28T07:43:42;11.97;;;7.53;;
13228;SDS011;6680;53.220;10.402;2022-09-28T07:46:08;10.13;;;6.57;;
13228;SDS011;6680;53.220;10.402;2022-09-28T07:48:39;11.20;;;7.20;;
13228;SDS011;6680;53.220;10.402;2022-09-28T07:51:06;11.90;;;7.50;;
13228;SDS011;6680;53.220;10.402;2022-09-28T07:53:34;13.60;;;7.57;;
13228;SDS011;6680;53.220;10.402;2022-09-28T07:56:03;13.03;;;8.73;;
13228;SDS011;6680;53.220;10.402;2022-09-28T07:58:31;16.27;;;9.30;;
13228;SDS011;6680;53.220;10.402;2022-09-28T08:01:01;13.73;;;8.33;;
13228;SDS011;6680;53.220;10.402;2022-09-28T08:03:30;14.17;;;8.13;;
13228;SDS011;6680;53.220;10.402;2022-09-28T08:05:58;13.87;;;8.20;;
13228;SDS011;6680;53.220;10.402;2022-09-28T08:08:26;12.50;;;7.63;;
13228;SDS011;6680;53.220;10.402;2022-09-28T08:10:54;17.43;;;8.57;;
13228;SDS011;6680;53.220;10.402;2022-09-28T08:13:21;13.27;;;7.50;;
13228;SDS011;6680;53.220;10.402;2022-09-28T08:15:50;15.00;;;8.93;;
13228;SDS011;6680;53.220;10.402;2022-09-28T08:18:17;13.53;;;7.73;;
13228;SDS011;6680;53.220;10.402;2022-09-28T08:20:44;11.60;;;7.37;;
13228;SDS011;6680;53.220;10.402;2022-09-28T08:23:29;12.30;;;7.33;;
13228;SDS011;6680;53.220;10.402;2022-09-28T08:25:56;11.23;;;7.03;;
13228;SDS011;6680;53.220;10.402;2022-09-28T08:28:23;13.80;;;7.67;;
13228;SDS011;6680;53.220;10.402;2022-09-28T08:30:50;14.00;;;8.60;;
13228;SDS011;6680;53.220;10.402;2022-09-28T08:33:18;15.50;;;9.13;;
13228;SDS011;6680;53.220;10.402;2022-09-28T08:35:46;13.33;;;8.83;;
13228;SDS011;6680;53.220;10.402;2022-09-28T08:38:13;15.50;;;9.07;;
13228;SDS011;6680;53.220;10.402;2022-09-28T08:40:45;13.43;;;8.00;;
13228;SDS011;6680;53.220;10.402;2022-09-28T08:43:19;13.03;;;8.13;;
13228;SDS011;6680;53.220;10.402;2022-09-28T08:46:03;11.83;;;7.67;;
13228;SDS011;6680;53.220;10.402;2022-09-28T08:48:32;11.47;;;7.67;;
13228;SDS011;6680;53.220;10.402;2022-09-28T08:51:14;12.40;;;8.00;;
13228;SDS011;6680;53.220;10.402;2022-09-28T08:53:45;14.27;;;8.37;;
13228;SDS011;6680;53.220;10.402;2022-09-28T08:56:20;13.67;;;8.17;;
13228;SDS011;6680;53.220;10.402;2022-09-28T08:58:54;11.20;;;7.03;;
13228;SDS011;6680;53.220;10.402;2022-09-28T09:01:23;12.60;;;7.73;;
13228;SDS011;6680;53.220;10.402;2022-09-28T09:03:53;12.00;;;7.30;;
13228;SDS011;6680;53.220;10.402;2022-09-28T09:06:22;10.80;;;7.67;;
13228;SDS011;6680;53.220;10.402;2022-09-28T09:08:57;9.73;;;7.23;;
13228;SDS011;6680;53.220;10.402;2022-09-28T09:11:42;16.73;;;7.83;;
13228;SDS011;6680;53.220;10.402;2022-09-28T09:17:34;12.53;;;8.47;;
13228;SDS011;6680;53.220;10.402;2022-09-28T09:20:15;10.70;;;8.07;;
13228;SDS011;6680;53.220;10.402;2022-09-28T09:22:49;13.83;;;8.37;;
13228;SDS011;6680;53.220;10.402;2022-09-28T09:25:24;11.63;;;7.90;;
13228;SDS011;6680;53.220;10.402;2022-09-28T09:28:13;11.63;;;7.63;;
13228;SDS011;6680;53.220;10.402;2022-09-28T09:30:56;12.60;;;7.73;;
13228;SDS011;6680;53.220;10.402;2022-09-28T09:33:45;12.27;;;6.73;;
13228;SDS011;6680;53.220;10.402;2022-09-28T09:36:34;13.73;;;7.63;;
13228;SDS011;6680;53.220;10.402;2022-09-28T09:39:13;12.30;;;7.20;;
13228;SDS011;6680;53.220;10.402;2022-09-28T09:41:53;10.17;;;7.13;;
13228;SDS011;6680;53.220;10.402;2022-09-28T09:44:42;9.60;;;6.67;;
13228;SDS011;6680;53.220;10.402;2022-09-28T09:47:30;12.77;;;7.50;;
13228;SDS011;6680;53.220;10.402;2022-09-28T09:50:02;32.40;;;19.30;;
13228;SDS011;6680;53.220;10.402;2022-09-28T09:52:37;37.10;;;30.13;;
13228;SDS011;6680;53.220;10.402;2022-09-28T09:55:13;15.37;;;9.93;;
13228;SDS011;6680;53.220;10.402;2022-09-28T09:57:43;11.90;;;9.10;;
13228;SDS011;6680;53.220;10.402;2022-09-28T10:00:16;13.37;;;8.73;;
13228;SDS011;6680;53.220;10.402;2022-09-28T10:02:44;13.93;;;8.17;;
13228;SDS011;6680;53.220;10.402;2022-09-28T10:05:15;11.73;;;7.37;;
13228;SDS011;6680;53.220;10.402;2022-09-28T10:07:48;13.43;;;7.17;;
13228;SDS011;6680;53.220;10.402;2022-09-28T10:10:19;13.23;;;7.83;;
13228;SDS011;6680;53.220;10.402;2022-09-28T10:12:50;13.03;;;7.70;;
13228;SDS011;6680;53.220;10.402;2022-09-28T10:15:19;12.17;;;7.83;;
13228;SDS011;6680;53.220;10.402;2022-09-28T10:17:49;11.57;;;7.90;;
13228;SDS011;6680;53.220;10.402;2022-09-28T10:20:16;11.00;;;7.47;;
13228;SDS011;6680;53.220;10.402;2022-09-28T10:22:43;17.70;;;7.87;;
13228;SDS011;6680;53.220;10.402;2022-09-28T10:25:11;12.53;;;7.83;;
13228;SDS011;6680;53.220;10.402;2022-09-28T10:27:39;12.70;;;7.60;;
13228;SDS011;6680;53.220;10.402;2022-09-28T10:30:13;12.10;;;8.50;;
13228;SDS011;6680;53.220;10.402;2022-09-28T10:32:44;11.67;;;7.70;;
13228;SDS011;6680;53.220;10.402;2022-09-28T10:35:16;12.17;;;7.70;;
13228;SDS011;6680;53.220;10.402;2022-09-28T10:37:51;13.37;;;7.53;;
13228;SDS011;6680;53.220;10.402;2022-09-28T10:40:25;10.73;;;7.93;;
13228;SDS011;6680;53.220;10.402;2022-09-28T10:43:00;11.73;;;7.33;;
13228;SDS011;6680;53.220;10.402;2022-09-28T10:45:27;14.37;;;7.67;;
13228;SDS011;6680;53.220;10.402;2022-09-28T10:48:01;15.90;;;7.63;;
13228;SDS011;6680;53.220;10.402;2022-09-28T10:50:31;11.33;;;8.33;;
13228;SDS011;6680;53.220;10.402;2022-09-28T10:53:09;11.83;;;7.97;;
13228;SDS011;6680;53.220;10.402;2022-09-28T10:55:36;14.57;;;8.50;;
13228;SDS011;6680;53.220;10.402;2022-09-28T11:00:57;17.17;;;8.50;;
13228;SDS011;6680;53.220;10.402;2022-09-28T11:03:28;13.70;;;9.07;;
13228;SDS011;6680;53.220;10.402;2022-09-28T11:05:57;14.20;;;8.57;;
13228;SDS011;6680;53.220;10.402;2022-09-28T11:08:28;11.87;;;7.57;;
13228;SDS011;6680;53.220;10.402;2022-09-28T11:11:02;12.20;;;9.17;;
13228;SDS011;6680;53.220;10.402;2022-09-28T11:13:36;12.17;;;8.07;;
13228;SDS011;6680;53.220;10.402;2022-09-28T11:16:04;12.60;;;7.53;;
13228;SDS011;6680;53.220;10.402;2022-09-28T11:18:32;14.63;;;8.10;;
13228;SDS011;6680;53.220;10.402;2022-09-28T11:21:09;18.70;;;9.27;;
13228;SDS011;6680;53.220;10.402;2022-09-28T11:23:39;12.00;;;8.13;;
13228;SDS011;6680;53.220;10.402;2022-09-28T11:26:06;13.77;;;8.33;;
13228;SDS011;6680;53.220;10.402;2022-09-28T11:28:36;10.53;;;7.30;;
13228;SDS011;6680;53.220;10.402;2022-09-28T11:31:06;11.63;;;7.10;;
13228;SDS011;6680;53.220;10.402;2022-09-28T11:33:35;13.73;;;8.23;;
13228;SDS011;6680;53.220;10.402;2022-09-28T11:36:16;12.20;;;7.73;;
13228;SDS011;6680;53.220;10.402;2022-09-28T11:38:56;14.17;;;8.33;;
13228;SDS011;6680;53.220;10.402;2022-09-28T11:41:32;12.00;;;7.63;;
13228;SDS011;6680;53.220;10.402;2022-09-28T11:44:17;13.20;;;8.33;;
13228;SDS011;6680;53.220;10.402;2022-09-28T11:46:55;10.73;;;7.43;;
13228;SDS011;6680;53.220;10.402;2022-09-28T11:49:32;10.53;;;7.67;;
13228;SDS011;6680;53.220;10.402;2022-09-28T11:52:04;10.47;;;7.10;;
13228;SDS011;6680;53.220;10.402;2022-09-28T11:54:37;10.90;;;6.20;;
13228;SDS011;6680;53.220;10.402;2022-09-28T11:57:10;8.80;;;5.73;;
13228;SDS011;6680;53.220;10.402;2022-09-28T11:59:42;12.30;;;6.67;;
13228;SDS011;6680;53.220;10.402;2022-09-28T12:02:19;8.77;;;6.30;;
13228;SDS011;6680;53.220;10.402;2022-09-28T12:04:53;5.93;;;5.33;;
13228;SDS011;6680;53.220;10.402;2022-09-28T12:07:22;7.17;;;5.50;;
13228;SDS011;6680;53.220;10.402;2022-09-28T12:09:56;7.37;;;5.43;;
13228;SDS011;6680;53.220;10.402;2022-09-28T12:12:27;8.77;;;5.63;;
13228;SDS011;6680;53.220;10.402;2022-09-28T12:14:59;9.17;;;5.70;;
13228;SDS011;6680;53.220;10.402;2022-09-28T12:17:31;7.30;;;5.70;;
13228;SDS011;6680;53.220;10.402;2022-09-28T12:20:09;7.43;;;5.57;;
13228;SDS011;6680;53.220;10.402;2022-09-28T12:22:42;6.37;;;5.10;;
13228;SDS011;6680;53.220;10.402;2022-09-28T12:25:12;5.37;;;4.67;;
13228;SDS011;6680;53.220;10.402;2022-09-28T12:27:44;6.27;;;4.57;;
13228;SDS011;6680;53.220;10.402;2022-09-28T12:30:15;5.47;;;4.67;;
13228;SDS011;6680;53.220;10.402;2022-09-28T12:32:45;5.90;;;4.53;;
13228;SDS011;6680;53.220;10.402;2022-09-28T12:35:17;6.57;;;4.37;;
13228;SDS011;6680;53.220;10.402;2022-09-28T12:37:55;4.53;;;4.13;;
13228;SDS011;6680;53.220;10.402;2022-09-28T12:40:36;6.13;;;4.20;;
13228;SDS011;6680;53.220;10.402;2022-09-28T12:43:13;5.00;;;4.20;;
13228;SDS011;6680;53.220;10.402;2022-09-28T12:46:01;6.67;;;4.20;;
13228;SDS011;6680;53.220;10.402;2022-09-28T12:49:00;5.30;;;4.20;;
13228;SDS011;6680;53.220;10.402;2022-09-28T12:51:45;4.80;;;4.10;;
13228;SDS011;6680;53.220;10.402;2022-09-28T12:54:23;6.20;;;4.07;;
13228;SDS011;6680;53.220;10.402;2022-09-28T12:57:06;4.47;;;3.83;;
13228;SDS011;6680;53.220;10.402;2022-09-28T12:59:56;5.50;;;4.13;;
13228;SDS011;6680;53.220;10.402;2022-09-28T13:05:35;6.90;;;4.70;;
13228;SDS011;6680;53.220;10.402;2022-09-28T13:08:33;5.93;;;4.33;;
13228;SDS011;6680;53.220;10.402;2022-09-28T13:11:11;5.57;;;4.37;;
13228;SDS011;6680;53.220;10.402;2022-09-28T13:13:46;4.67;;;3.83;;
13228;SDS011;6680;53.220;10.402;2022-09-28T13:16:24;4.10;;;3.70;;
13228;SDS011;6680;53.220;10.402;2022-09-28T13:19:00;5.77;;;3.93;;
13228;SDS011;6680;53.220;10.402;2022-09-28T13:21:42;4.00;;;3.60;;
13228;SDS011;6680;53.220;10.402;2022-09-28T13:24:19;8.53;;;4.60;;
13228;SDS011;6680;53.220;10.402;2022-09-28T13:26:50;4.53;;;4.13;;
13228;SDS011;6680;53.220;10.402;2022-09-28T13:29:21;7.87;;;4.10;;
13228;SDS011;6680;53.220;10.402;2022-09-28T13:31:50;6.77;;;4.37;;
13228;SDS011;6680;53.220;10.402;2022-09-28T13:34:20;4.33;;;3.87;;
13228;SDS011;6680;53.220;10.402;2022-09-28T13:37:16;4.40;;;4.00;;
13228;SDS011;6680;53.220;10.402;2022-09-28T13:39:47;3.83;;;3.30;;
13228;SDS011;6680;53.220;10.402;2022-09-28T13:42:21;6.73;;;4.73;;
13228;SDS011;6680;53.220;10.402;2022-09-28T13:44:54;4.83;;;4.33;;
13228;SDS011;6680;53.220;10.402;2022-09-28T13:50:32;4.40;;;3.53;;
13228;SDS011;6680;53.220;10.402;2022-09-28T13:53:08;5.33;;;4.37;;
13228;SDS011;6680;53.220;10.402;2022-09-28T13:55:46;5.03;;;4.50;;
13228;SDS011;6680;53.220;10.402;2022-09-28T13:58:21;4.87;;;3.63;;
13228;SDS011;6680;53.220;10.402;2022-09-28T14:00:52;4.93;;;4.43;;
13228;SDS011;6680;53.220;10.402;2022-09-28T14:03:25;5.63;;;4.03;;
13228;SDS011;6680;53.220;10.402;2022-09-28T14:06:08;6.27;;;4.27;;
13228;SDS011;6680;53.220;10.402;2022-09-28T14:14:23;4.97;;;3.40;;
13228;SDS011;6680;53.220;10.402;2022-09-28T14:20:20;7.43;;;3.43;;
13228;SDS011;6680;53.220;10.402;2022-09-28T14:23:00;5.30;;;3.27;;
13228;SDS011;6680;53.220;10.402;2022-09-28T14:25:57;5.33;;;3.30;;
13228;SDS011;6680;53.220;10.402;2022-09-28T14:28:44;5.63;;;3.73;;
13228;SDS011;6680;53.220;10.402;2022-09-28T14:31:23;4.93;;;3.40;;
13228;SDS011;6680;53.220;10.402;2022-09-28T14:33:53;7.57;;;4.43;;
13228;SDS011;6680;53.220;10.402;2022-09-28T14:36:22;5.27;;;3.80;;
13228;SDS011;6680;53.220;10.402;2022-09-28T14:39:15;5.07;;;3.80;;
13228;SDS011;6680;53.220;10.402;2022-09-28T14:42:06;5.37;;;4.20;;
13228;SDS011;6680;53.220;10.402;2022-09-28T14:47:36;5.80;;;4.37;;
13228;SDS011;6680;53.220;10.402;2022-09-28T14:50:17;6.27;;;4.60;;
13228;SDS011;6680;53.220;10.402;2022-09-28T14:52:48;5.40;;;4.63;;
13228;SDS011;6680;53.220;10.402;2022-09-28T14:55:18;5.27;;;3.80;;
13228;SDS011;6680;53.220;10.402;2022-09-28T14:57:50;6.37;;;3.93;;
13228;SDS011;6680;53.220;10.402;2022-09-28T15:00:19;6.43;;;3.90;;
13228;SDS011;6680;53.220;10.402;2022-09-28T15:02:51;4.47;;;3.87;;
13228;SDS011;6680;53.220;10.402;2022-09-28T15:05:21;6.47;;;4.70;;
13228;SDS011;6680;53.220;10.402;2022-09-28T15:07:53;6.93;;;4.07;;
13228;SDS011;6680;53.220;10.402;2022-09-28T15:10:24;5.17;;;3.90;;
13228;SDS011;6680;53.220;10.402;2022-09-28T15:12:56;4.80;;;4.30;;
13228;SDS011;6680;53.220;10.402;2022-09-28T15:15:32;7.07;;;4.17;;
13228;SDS011;6680;53.220;10.402;2022-09-28T15:18:06;7.17;;;4.73;;
13228;SDS011;6680;53.220;10.402;2022-09-28T15:20:55;6.20;;;4.17;;
13228;SDS011;6680;53.220;10.402;2022-09-28T15:23:24;6.17;;;4.17;;
13228;SDS011;6680;53.220;10.402;2022-09-28T15:25:53;4.00;;;3.63;;
13228;SDS011;6680;53.220;10.402;2022-09-28T15:28:21;4.87;;;3.70;;
13228;SDS011;6680;53.220;10.402;2022-09-28T15:30:49;10.17;;;7.57;;
13228;SDS011;6680;53.220;10.402;2022-09-28T15:33:24;4.90;;;4.13;;